createdAt,value
2022-10-01T00:01:15.018Z,88.99
2022-10-01T00:03:41.783Z,88.87
2022-10-01T00:06:13.949Z,88.71
2022-10-01T00:08:43.357Z,89.17
2022-10-01T00:11:15.756Z,88.45
2022-10-01T00:13:44.203Z,88.75
2022-10-01T00:16:13.489Z,88.94
2022-10-01T00:18:41.321Z,89.10
2022-10-01T00:21:09.519Z,88.91
2022-10-01T00:23:36.708Z,89.12
2022-10-01T00:26:21.103Z,89.25
2022-10-01T00:28:48.720Z,89.81
2022-10-01T00:31:15.809Z,89.65
2022-10-01T00:33:42.651Z,90.10
2022-10-01T00:36:10.319Z,90.16
2022-10-01T00:38:37.778Z,90.04
2022-10-01T00:41:04.732Z,90.07
2022-10-01T00:43:34.233Z,89.98
2022-10-01T00:46:10.762Z,89.95
2022-10-01T00:48:44.388Z,90.23
2022-10-01T00:51:11.570Z,90.26
2022-10-01T00:53:38.370Z,90.53
2022-10-01T00:56:05.211Z,91.01
2022-10-01T00:58:32.024Z,90.72
2022-10-01T01:00:58.528Z,90.81
2022-10-01T01:03:25.178Z,90.86
2022-10-01T01:05:51.580Z,90.74
2022-10-01T01:08:18.287Z,90.49
2022-10-01T01:10:54.172Z,91.22
2022-10-01T01:13:50.231Z,91.40
2022-10-01T01:16:25.739Z,91.14
2022-10-01T01:19:01.992Z,91.16
2022-10-01T01:21:31.742Z,91.24
2022-10-01T01:24:27.179Z,91.22
2022-10-01T01:27:09.093Z,91.60
2022-10-01T01:29:39.759Z,91.44
2022-10-01T01:32:14.782Z,91.86
2022-10-01T01:34:43.603Z,91.34
2022-10-01T01:37:12.000Z,91.21
2022-10-01T01:39:41.485Z,90.92
2022-10-01T01:42:13.954Z,90.73
2022-10-01T01:44:42.214Z,90.73
2022-10-01T01:47:10.403Z,91.02
2022-10-01T01:49:38.787Z,91.42
2022-10-01T01:52:05.040Z,91.15
2022-10-01T01:54:32.182Z,91.33
2022-10-01T01:56:59.211Z,91.35
2022-10-01T01:59:26.605Z,91.53
2022-10-01T02:01:53.052Z,91.18
2022-10-01T02:04:25.652Z,91.77
2022-10-01T02:07:04.072Z,92.39
2022-10-01T02:09:35.550Z,92.37
2022-10-01T02:12:10.085Z,92.32
2022-10-01T02:15:01.166Z,92.38
2022-10-01T02:17:54.578Z,92.52
2022-10-01T02:20:30.146Z,92.74
2022-10-01T02:23:00.631Z,92.79
2022-10-01T02:25:31.546Z,92.80
2022-10-01T02:28:03.749Z,92.52
2022-10-01T02:30:31.839Z,92.50
2022-10-01T02:32:59.959Z,92.47
2022-10-01T02:35:28.427Z,92.58
2022-10-01T02:37:57.591Z,92.95
2022-10-01T02:40:28.316Z,92.99
2022-10-01T02:42:57.817Z,92.87
2022-10-01T02:45:26.107Z,93.10
2022-10-01T02:48:02.319Z,93.00
2022-10-01T02:50:35.054Z,93.01
2022-10-01T02:53:07.195Z,93.06
2022-10-01T02:55:36.726Z,93.11
2022-10-01T02:58:03.236Z,93.21
2022-10-01T03:00:30.045Z,93.32
2022-10-01T03:02:56.425Z,93.37
2022-10-01T03:05:23.122Z,93.37
2022-10-01T03:07:49.552Z,92.94
2022-10-01T03:10:16.460Z,93.44
2022-10-01T03:12:46.480Z,93.76
2022-10-01T03:15:14.542Z,93.45
2022-10-01T03:17:41.013Z,93.65
2022-10-01T03:20:08.222Z,93.66
2022-10-01T03:22:34.593Z,93.72
2022-10-01T03:25:00.974Z,93.50
2022-10-01T03:27:27.369Z,93.70
2022-10-01T03:29:53.748Z,93.52
2022-10-01T03:32:20.474Z,93.95
2022-10-01T03:34:47.166Z,94.02
2022-10-01T03:37:13.594Z,94.12
2022-10-01T03:39:40.113Z,93.80
2022-10-01T03:42:07.035Z,93.95
2022-10-01T03:44:33.912Z,93.81
2022-10-01T03:47:00.494Z,93.87
2022-10-01T03:49:27.280Z,93.86
2022-10-01T03:51:54.090Z,93.42
2022-10-01T03:54:21.563Z,93.15
2022-10-01T03:56:48.766Z,93.66
2022-10-01T03:59:15.128Z,93.14
2022-10-01T04:01:41.495Z,93.40
2022-10-01T04:04:07.965Z,93.66
2022-10-01T04:06:34.333Z,93.64
2022-10-01T04:09:00.865Z,93.42
2022-10-01T04:11:27.840Z,93.62
2022-10-01T04:13:54.253Z,93.50
2022-10-01T04:16:20.725Z,93.65
2022-10-01T04:18:47.179Z,93.56
2022-10-01T04:21:15.467Z,93.44
2022-10-01T04:23:42.105Z,93.43
2022-10-01T04:26:08.575Z,93.51
2022-10-01T04:28:35.124Z,93.90
2022-10-01T04:31:20.214Z,93.93
2022-10-01T04:33:46.742Z,93.87
2022-10-01T04:36:13.147Z,94.09
2022-10-01T04:38:39.492Z,94.16
2022-10-01T04:41:06.245Z,94.57
2022-10-01T04:43:33.043Z,94.11
2022-10-01T04:45:59.536Z,93.99
2022-10-01T04:48:25.934Z,94.21
2022-10-01T04:50:52.316Z,94.03
2022-10-01T04:53:18.799Z,94.47
2022-10-01T04:55:46.529Z,94.53
2022-10-01T04:58:13.020Z,94.23
2022-10-01T05:00:39.432Z,94.15
2022-10-01T05:03:05.917Z,94.34
2022-10-01T05:05:34.767Z,94.62
2022-10-01T05:08:01.834Z,94.48
2022-10-01T05:10:28.302Z,94.34
2022-10-01T05:12:54.766Z,94.50
2022-10-01T05:15:21.230Z,94.13
2022-10-01T05:17:47.584Z,94.23
2022-10-01T05:20:19.357Z,94.28
2022-10-01T05:22:46.842Z,94.20
2022-10-01T05:25:13.305Z,94.54
2022-10-01T05:27:41.037Z,94.46
2022-10-01T05:30:09.449Z,94.51
2022-10-01T05:32:36.116Z,94.56
2022-10-01T05:35:03.495Z,94.80
2022-10-01T05:37:29.892Z,94.62
2022-10-01T05:39:56.258Z,94.40
2022-10-01T05:42:22.629Z,94.39
2022-10-01T05:44:49.960Z,94.39
2022-10-01T05:47:20.541Z,94.25
2022-10-01T05:49:46.914Z,94.06
2022-10-01T05:52:15.480Z,94.09
2022-10-01T05:54:41.858Z,94.43
2022-10-01T05:57:08.318Z,94.36
2022-10-01T05:59:35.317Z,94.45
2022-10-01T06:02:02.084Z,94.36
2022-10-01T06:04:28.547Z,94.38
2022-10-01T06:06:56.020Z,94.10
2022-10-01T06:09:22.472Z,94.35
2022-10-01T06:11:49.227Z,94.25
2022-10-01T06:14:16.224Z,94.70
2022-10-01T06:16:42.760Z,94.45
2022-10-01T06:19:09.165Z,94.94
2022-10-01T06:21:36.072Z,94.73
2022-10-01T06:24:02.774Z,94.62
2022-10-01T06:26:29.225Z,94.57
2022-10-01T06:28:56.547Z,94.83
2022-10-01T06:31:23.212Z,94.82
2022-10-01T06:33:49.673Z,94.57
2022-10-01T06:36:16.031Z,94.30
2022-10-01T06:38:42.986Z,94.25
2022-10-01T06:41:09.905Z,94.00
2022-10-01T06:43:36.259Z,94.27
2022-10-01T06:46:03.946Z,94.32
2022-10-01T06:48:31.308Z,94.21
2022-10-01T06:50:58.313Z,94.38
2022-10-01T06:53:25.262Z,94.41
2022-10-01T06:55:51.644Z,94.48
2022-10-01T06:58:20.945Z,94.32
2022-10-01T07:00:48.424Z,94.02
2022-10-01T07:03:17.230Z,93.86
2022-10-01T07:05:43.668Z,94.12
2022-10-01T07:08:10.401Z,93.84
2022-10-01T07:10:38.034Z,93.88
2022-10-01T07:13:16.496Z,93.89
2022-10-01T07:15:42.947Z,93.72
2022-10-01T07:18:10.093Z,93.76
2022-10-01T07:20:39.673Z,93.61
2022-10-01T07:23:08.588Z,94.21
2022-10-01T07:25:35.038Z,93.95
2022-10-01T07:28:04.532Z,93.91
2022-10-01T07:30:31.819Z,93.93
2022-10-01T07:32:58.566Z,94.18
2022-10-01T07:35:26.126Z,94.14
2022-10-01T07:37:54.924Z,93.99
2022-10-01T07:40:21.683Z,93.92
2022-10-01T07:42:55.672Z,93.45
2022-10-01T07:45:23.034Z,93.37
2022-10-01T07:47:54.244Z,93.04
2022-10-01T07:50:20.884Z,92.81
2022-10-01T07:52:51.681Z,92.50
2022-10-01T07:55:18.568Z,92.31
2022-10-01T07:57:53.037Z,92.01
2022-10-01T08:00:19.981Z,91.87
2022-10-01T08:02:47.785Z,91.88
2022-10-01T08:05:20.286Z,92.20
2022-10-01T08:07:47.428Z,92.00
2022-10-01T08:10:15.173Z,91.57
2022-10-01T08:12:44.402Z,91.30
2022-10-01T08:15:12.829Z,91.23
2022-10-01T08:17:39.426Z,91.51
2022-10-01T08:20:07.798Z,91.27
2022-10-01T08:22:36.549Z,91.06
2022-10-01T08:25:05.866Z,90.92
2022-10-01T08:27:32.284Z,90.72
2022-10-01T08:29:58.727Z,90.51
2022-10-01T08:32:27.377Z,90.22
2022-10-01T08:34:56.748Z,89.52
2022-10-01T08:37:27.141Z,89.50
2022-10-01T08:39:54.568Z,89.48
2022-10-01T08:42:42.264Z,89.78
2022-10-01T08:45:14.950Z,89.88
2022-10-01T08:47:45.780Z,90.45
2022-10-01T08:50:19.376Z,90.23
2022-10-01T08:52:55.657Z,89.51
2022-10-01T08:55:24.772Z,89.93
2022-10-01T08:58:00.668Z,89.21
2022-10-01T09:00:26.935Z,88.93
2022-10-01T09:03:04.018Z,88.10
2022-10-01T09:05:38.363Z,87.41
2022-10-01T09:08:46.580Z,85.36
2022-10-01T09:11:36.959Z,85.69
2022-10-01T09:14:28.387Z,84.06
2022-10-01T09:17:05.432Z,83.57
2022-10-01T09:19:57.476Z,82.96
2022-10-01T09:23:02.933Z,82.18
2022-10-01T09:25:29.936Z,83.50
2022-10-01T09:28:15.800Z,82.65
2022-10-01T09:30:51.190Z,83.28
2022-10-01T09:33:20.290Z,82.30
2022-10-01T09:36:07.791Z,80.10
2022-10-01T09:38:38.627Z,79.33
2022-10-01T09:41:10.769Z,78.18
2022-10-01T09:43:42.513Z,77.89
2022-10-01T09:46:13.470Z,79.07
2022-10-01T09:48:59.356Z,77.44
2022-10-01T09:51:33.989Z,79.02
2022-10-01T09:54:09.302Z,79.96
2022-10-01T09:56:48.039Z,77.64
2022-10-01T09:59:19.633Z,77.59
2022-10-01T10:01:50.352Z,77.92
2022-10-01T10:04:23.536Z,77.89
2022-10-01T10:07:00.211Z,76.30
2022-10-01T10:09:30.634Z,76.05
2022-10-01T10:11:58.806Z,76.93
2022-10-01T10:14:49.039Z,75.33
2022-10-01T10:17:22.460Z,74.72
2022-10-01T10:19:51.805Z,75.68
2022-10-01T10:22:26.505Z,74.88
2022-10-01T10:24:54.302Z,73.20
2022-10-01T10:27:26.659Z,73.72
2022-10-01T10:30:16.261Z,73.02
2022-10-01T10:32:43.886Z,74.11
2022-10-01T10:35:13.674Z,73.44
2022-10-01T10:37:47.321Z,74.13
2022-10-01T10:40:20.247Z,73.21
2022-10-01T10:42:48.900Z,73.37
2022-10-01T10:45:17.645Z,71.89
2022-10-01T10:47:45.835Z,72.72
2022-10-01T10:50:29.803Z,72.61
2022-10-01T10:52:57.020Z,72.88
2022-10-01T10:55:25.158Z,70.20
2022-10-01T10:57:57.268Z,70.40
2022-10-01T11:00:25.882Z,70.93
2022-10-01T11:02:56.807Z,70.82
2022-10-01T11:05:25.973Z,69.51
2022-10-01T11:07:58.526Z,67.13
2022-10-01T11:10:38.321Z,67.52
2022-10-01T11:13:19.690Z,67.80
2022-10-01T11:15:58.423Z,67.84
2022-10-01T11:19:12.853Z,69.11
2022-10-01T11:21:46.705Z,69.27
2022-10-01T11:24:47.353Z,67.54
2022-10-01T11:28:10.626Z,66.81
2022-10-01T11:31:01.857Z,67.18
2022-10-01T11:33:38.713Z,67.04
2022-10-01T11:36:10.734Z,67.03
2022-10-01T11:38:46.796Z,66.93
2022-10-01T11:41:18.974Z,65.70
2022-10-01T11:43:56.381Z,62.04
2022-10-01T11:46:29.429Z,62.75
2022-10-01T11:49:18.869Z,62.14
2022-10-01T11:51:50.027Z,62.63
2022-10-01T11:54:20.928Z,63.55
2022-10-01T11:57:11.954Z,64.97
2022-10-01T11:59:55.518Z,62.68
2022-10-01T12:02:49.888Z,64.43
2022-10-01T12:05:17.282Z,64.31
2022-10-01T12:07:49.478Z,64.33
2022-10-01T12:10:38.753Z,64.26
2022-10-01T12:13:24.000Z,63.00
2022-10-01T12:15:58.019Z,66.95
2022-10-01T12:18:27.375Z,68.83
2022-10-01T12:20:56.214Z,71.47
2022-10-01T12:23:27.294Z,70.58
2022-10-01T12:26:22.165Z,70.84
2022-10-01T12:28:53.596Z,72.88
2022-10-01T12:31:24.872Z,71.35
2022-10-01T12:34:16.322Z,70.83
2022-10-01T12:36:55.768Z,68.53
2022-10-01T12:39:51.428Z,67.92
2022-10-01T12:42:39.636Z,66.60
2022-10-01T12:45:24.023Z,65.30
2022-10-01T12:47:58.509Z,65.86
2022-10-01T12:50:36.636Z,67.50
2022-10-01T12:53:35.461Z,69.29
2022-10-01T12:56:14.016Z,67.49
2022-10-01T12:58:59.480Z,67.36
2022-10-01T13:01:29.592Z,66.97
2022-10-01T13:04:28.032Z,63.61
2022-10-01T13:07:16.091Z,60.44
2022-10-01T13:09:52.171Z,60.00
2022-10-01T13:12:35.719Z,56.08
2022-10-01T13:15:03.109Z,56.53
2022-10-01T13:17:43.521Z,56.17
2022-10-01T13:20:22.131Z,59.75
2022-10-01T13:22:48.511Z,60.28
2022-10-01T13:25:26.652Z,61.04
2022-10-01T13:28:02.038Z,59.75
2022-10-01T13:30:45.144Z,58.71
2022-10-01T13:33:28.833Z,60.86
2022-10-01T13:35:58.744Z,61.36
2022-10-01T13:38:40.158Z,57.31
2022-10-01T13:41:17.068Z,56.43
2022-10-01T13:43:58.186Z,56.59
2022-10-01T13:46:33.355Z,56.90
2022-10-01T13:49:21.540Z,58.17
2022-10-01T13:51:47.944Z,59.44
2022-10-01T13:54:24.213Z,58.57
2022-10-01T13:56:50.580Z,57.83
2022-10-01T13:59:35.582Z,56.69
2022-10-01T14:02:03.099Z,58.46
2022-10-01T14:04:34.271Z,59.12
2022-10-01T14:07:14.328Z,59.40
2022-10-01T14:09:44.995Z,61.29
2022-10-01T14:12:37.752Z,61.95
2022-10-01T14:15:42.684Z,63.40
2022-10-01T14:18:18.653Z,63.23
2022-10-01T14:21:16.307Z,63.61
2022-10-01T14:24:00.908Z,69.86
2022-10-01T14:26:33.161Z,74.46
2022-10-01T14:29:39.342Z,76.24
2022-10-01T14:32:20.878Z,76.05
2022-10-01T14:35:26.029Z,77.76
2022-10-01T14:37:59.430Z,78.37
2022-10-01T14:40:26.488Z,75.13
2022-10-01T14:42:59.194Z,71.27
2022-10-01T14:45:25.629Z,68.09
2022-10-01T14:48:06.327Z,67.09
2022-10-01T14:50:34.265Z,69.41
2022-10-01T14:53:01.470Z,70.99
2022-10-01T14:55:27.977Z,70.14
2022-10-01T14:57:55.667Z,66.81
2022-10-01T15:00:23.209Z,63.92
2022-10-01T15:02:50.651Z,60.26
2022-10-01T15:05:37.387Z,58.72
2022-10-01T15:08:23.366Z,55.80
2022-10-01T15:11:37.443Z,56.10
2022-10-01T15:14:08.294Z,54.70
2022-10-01T15:16:35.202Z,53.75
2022-10-01T15:19:06.748Z,52.16
2022-10-01T15:21:47.621Z,50.94
2022-10-01T15:24:41.154Z,50.43
2022-10-01T15:27:13.609Z,48.97
2022-10-01T15:29:43.695Z,48.40
2022-10-01T15:32:15.145Z,49.14
2022-10-01T15:34:47.778Z,49.86
2022-10-01T15:37:33.711Z,49.80
2022-10-01T15:40:01.201Z,50.23
2022-10-01T15:42:31.137Z,52.30
2022-10-01T15:45:06.689Z,57.21
2022-10-01T15:47:37.524Z,57.56
2022-10-01T15:50:08.820Z,58.75
2022-10-01T15:52:50.796Z,59.84
2022-10-01T15:55:37.444Z,60.27
2022-10-01T15:58:15.110Z,60.70
2022-10-01T16:00:43.844Z,62.22
2022-10-01T16:03:19.586Z,61.82
2022-10-01T16:05:46.452Z,63.96
2022-10-01T16:08:21.345Z,63.12
2022-10-01T16:10:49.170Z,63.17
2022-10-01T16:13:34.051Z,64.57
2022-10-01T16:16:12.885Z,64.04
2022-10-01T16:18:43.099Z,65.40
2022-10-01T16:21:11.020Z,65.11
2022-10-01T16:23:44.032Z,66.56
2022-10-01T16:26:34.263Z,66.70
2022-10-01T16:29:24.086Z,66.74
2022-10-01T16:31:51.134Z,67.16
2022-10-01T16:34:19.404Z,67.04
2022-10-01T16:36:46.332Z,67.50
2022-10-01T16:39:15.734Z,67.47
2022-10-01T16:41:44.671Z,67.70
2022-10-01T16:44:15.714Z,68.34
2022-10-01T16:47:10.491Z,68.24
2022-10-01T16:49:41.819Z,68.17
2022-10-01T16:52:12.297Z,68.64
2022-10-01T16:54:39.264Z,70.48
2022-10-01T16:57:05.671Z,70.27
2022-10-01T16:59:33.684Z,70.34
2022-10-01T17:02:02.118Z,73.36
2022-10-01T17:04:34.065Z,74.10
2022-10-01T17:07:00.695Z,71.77
2022-10-01T17:09:27.085Z,73.32
2022-10-01T17:11:53.885Z,73.73
2022-10-01T17:14:21.229Z,73.27
2022-10-01T17:16:48.512Z,75.41
2022-10-01T17:19:15.023Z,76.08
2022-10-01T17:21:41.878Z,76.92
2022-10-01T17:24:10.803Z,78.48
2022-10-01T17:26:41.625Z,79.44
2022-10-01T17:29:09.453Z,79.75
2022-10-01T17:31:37.635Z,80.09
2022-10-01T17:34:04.785Z,80.67
2022-10-01T17:36:31.744Z,80.84
2022-10-01T17:38:58.718Z,81.49
2022-10-01T17:41:25.355Z,82.04
2022-10-01T17:43:51.749Z,82.60
2022-10-01T17:46:18.582Z,82.78
2022-10-01T17:48:48.562Z,82.60
2022-10-01T17:51:15.686Z,82.77
2022-10-01T17:53:42.916Z,83.39
2022-10-01T17:56:13.168Z,83.24
2022-10-01T17:58:45.230Z,83.61
2022-10-01T18:01:19.489Z,83.83
2022-10-01T18:03:46.100Z,83.63
2022-10-01T18:06:15.112Z,83.60
2022-10-01T18:08:54.667Z,83.63
2022-10-01T18:11:22.883Z,83.25
2022-10-01T18:13:50.762Z,83.27
2022-10-01T18:16:19.186Z,83.42
2022-10-01T18:19:51.786Z,84.31
2022-10-01T18:21:32.794Z,83.70
2022-10-01T18:24:03.995Z,84.36
2022-10-01T18:26:31.161Z,83.85
2022-10-01T18:28:57.520Z,83.41
2022-10-01T18:31:28.385Z,83.83
2022-10-01T18:33:57.548Z,84.56
2022-10-01T18:36:51.668Z,84.06
2022-10-01T18:39:28.966Z,83.38
2022-10-01T18:41:56.475Z,83.46
2022-10-01T18:44:23.241Z,83.39
2022-10-01T18:46:55.156Z,82.98
2022-10-01T18:49:51.545Z,83.18
2022-10-01T18:52:27.583Z,84.35
2022-10-01T18:55:25.337Z,83.75
2022-10-01T18:58:11.061Z,83.30
2022-10-01T19:00:52.330Z,84.01
2022-10-01T19:03:35.215Z,83.88
2022-10-01T19:06:28.170Z,83.71
2022-10-01T19:09:08.327Z,83.55
2022-10-01T19:11:54.145Z,84.49
2022-10-01T19:14:45.016Z,84.83
2022-10-01T19:17:31.316Z,85.13
2022-10-01T19:20:29.997Z,84.89
2022-10-01T19:23:11.240Z,85.13
2022-10-01T19:25:49.637Z,85.33
2022-10-01T19:28:39.732Z,85.12
2022-10-01T19:31:20.863Z,85.29
2022-10-01T19:33:51.684Z,84.83
2022-10-01T19:36:29.525Z,85.15
2022-10-01T19:39:01.096Z,84.62
2022-10-01T19:41:36.141Z,85.92
2022-10-01T19:44:04.762Z,85.02
2022-10-01T19:46:36.075Z,85.33
2022-10-01T19:49:08.847Z,84.73
2022-10-01T19:51:40.038Z,84.46
2022-10-01T19:54:13.522Z,83.56
2022-10-01T19:56:40.633Z,83.69
2022-10-01T19:59:11.190Z,83.99
2022-10-01T20:01:40.894Z,83.90
2022-10-01T20:04:14.754Z,84.45
2022-10-01T20:06:44.423Z,84.86
2022-10-01T20:09:18.649Z,84.75
2022-10-01T20:12:30.884Z,84.42
2022-10-01T20:15:09.783Z,85.15
2022-10-01T20:18:04.053Z,84.54
2022-10-01T20:21:02.929Z,84.35
2022-10-01T20:23:33.229Z,84.36
2022-10-01T20:26:18.756Z,84.16
2022-10-01T20:29:14.037Z,83.71
2022-10-01T20:32:14.464Z,84.06
2022-10-01T20:35:00.460Z,84.49
2022-10-01T20:37:34.794Z,84.81
2022-10-01T20:40:10.466Z,84.62
2022-10-01T20:42:40.210Z,84.57
2022-10-01T20:45:14.865Z,84.36
2022-10-01T20:47:49.174Z,84.70
2022-10-01T20:50:32.346Z,84.54
2022-10-01T20:53:22.405Z,84.97
2022-10-01T20:55:52.774Z,84.52
2022-10-01T20:58:29.829Z,84.34
2022-10-01T21:01:01.875Z,85.13
2022-10-01T21:03:37.642Z,85.16
2022-10-01T21:06:05.451Z,85.38
2022-10-01T21:08:44.649Z,85.15
2022-10-01T21:11:22.423Z,85.08
2022-10-01T21:14:00.801Z,84.98
2022-10-01T21:16:57.871Z,85.19
2022-10-01T21:19:39.466Z,85.49
2022-10-01T21:22:21.907Z,85.57
2022-10-01T21:24:56.692Z,85.66
2022-10-01T21:28:02.097Z,85.56
2022-10-01T21:30:41.657Z,85.60
2022-10-01T21:33:53.241Z,85.50
2022-10-01T21:36:32.899Z,85.55
2022-10-01T21:39:27.477Z,86.23
2022-10-01T21:42:17.065Z,86.03
2022-10-01T21:45:02.205Z,86.10
2022-10-01T21:47:28.475Z,86.55
2022-10-01T21:50:19.634Z,86.51
2022-10-01T21:53:06.825Z,86.45
2022-10-01T21:55:55.610Z,86.79
2022-10-01T21:58:36.220Z,86.98
2022-10-01T22:01:15.927Z,87.62
2022-10-01T22:04:08.640Z,87.91
2022-10-01T22:06:59.191Z,88.47
2022-10-01T22:10:04.449Z,88.54
2022-10-01T22:12:33.483Z,88.92
2022-10-01T22:15:00.798Z,89.05
2022-10-01T22:17:33.124Z,89.06
2022-10-01T22:20:02.234Z,89.26
2022-10-01T22:22:30.996Z,89.42
2022-10-01T22:24:59.488Z,89.51
2022-10-01T22:27:32.074Z,89.50
2022-10-01T22:30:24.282Z,89.38
2022-10-01T22:37:02.081Z,89.17
2022-10-01T22:40:13.795Z,89.21
2022-10-01T22:43:04.580Z,88.85
2022-10-01T22:49:49.431Z,88.84
2022-10-01T22:52:40.099Z,88.83
2022-10-01T22:55:24.592Z,88.66
2022-10-01T22:57:51.273Z,88.58
2022-10-01T23:04:06.665Z,88.39
2022-10-01T23:07:12.619Z,87.91
2022-10-01T23:13:47.522Z,88.06
2022-10-01T23:16:38.308Z,87.72
2022-10-01T23:19:55.057Z,87.70
2022-10-01T23:22:46.444Z,87.08
2022-10-01T23:25:24.538Z,87.11
2022-10-01T23:28:06.226Z,87.05
2022-10-01T23:30:51.740Z,87.01
2022-10-01T23:33:56.630Z,86.58
2022-10-01T23:36:34.236Z,86.37
2022-10-01T23:39:28.919Z,86.17
2022-10-01T23:42:05.608Z,86.31
2022-10-01T23:44:55.102Z,86.09
2022-10-01T23:47:58.208Z,86.16
2022-10-01T23:50:35.463Z,85.89
2022-10-01T23:53:13.670Z,85.75
2022-10-01T23:56:30.123Z,85.47
2022-10-01T23:59:18.998Z,85.40
